sensor_id;sensor_type;location;lat;lon;timestamp;P1;durP1;ratioP1;P2;durP2;ratioP2
15655;SDS011;7928;43.614;1.456;2024-02-23T00:00:30;9.93;;;2.00;;
15655;SDS011;7928;43.614;1.456;2024-02-23T00:02:57;10.23;;;2.03;;
15655;SDS011;7928;43.614;1.456;2024-02-23T00:05:24;10.40;;;2.90;;
15655;SDS011;7928;43.614;1.456;2024-02-23T00:07:51;10.57;;;2.40;;
15655;SDS011;7928;43.614;1.456;2024-02-23T00:10:20;9.97;;;2.30;;
15655;SDS011;7928;43.614;1.456;2024-02-23T00:12:47;10.20;;;2.30;;
15655;SDS011;7928;43.614;1.456;2024-02-23T00:15:14;7.17;;;1.97;;
15655;SDS011;7928;43.614;1.456;2024-02-23T00:17:41;10.40;;;2.50;;
15655;SDS011;7928;43.614;1.456;2024-02-23T00:20:08;8.63;;;1.90;;
15655;SDS011;7928;43.614;1.456;2024-02-23T00:22:36;7.50;;;1.50;;
15655;SDS011;7928;43.614;1.456;2024-02-23T00:25:04;7.30;;;1.80;;
15655;SDS011;7928;43.614;1.456;2024-02-23T00:27:33;11.37;;;2.20;;
15655;SDS011;7928;43.614;1.456;2024-02-23T00:30:00;15.93;;;2.37;;
15655;SDS011;7928;43.614;1.456;2024-02-23T00:32:27;8.83;;;2.13;;
15655;SDS011;7928;43.614;1.456;2024-02-23T00:34:55;9.50;;;2.13;;
15655;SDS011;7928;43.614;1.456;2024-02-23T00:37:23;10.50;;;2.33;;
15655;SDS011;7928;43.614;1.456;2024-02-23T00:39:50;9.63;;;2.13;;
15655;SDS011;7928;43.614;1.456;2024-02-23T00:42:17;9.20;;;2.23;;
15655;SDS011;7928;43.614;1.456;2024-02-23T00:44:47;8.63;;;2.30;;
15655;SDS011;7928;43.614;1.456;2024-02-23T00:47:14;11.80;;;2.67;;
15655;SDS011;7928;43.614;1.456;2024-02-23T00:49:41;8.27;;;2.30;;
15655;SDS011;7928;43.614;1.456;2024-02-23T00:52:08;15.33;;;2.77;;
15655;SDS011;7928;43.614;1.456;2024-02-23T00:54:35;14.70;;;2.53;;
15655;SDS011;7928;43.614;1.456;2024-02-23T00:57:02;6.33;;;1.60;;
15655;SDS011;7928;43.614;1.456;2024-02-23T00:59:29;11.83;;;2.30;;
15655;SDS011;7928;43.614;1.456;2024-02-23T01:01:58;8.17;;;2.10;;
15655;SDS011;7928;43.614;1.456;2024-02-23T01:04:25;9.23;;;2.47;;
15655;SDS011;7928;43.614;1.456;2024-02-23T01:06:52;9.30;;;1.87;;
15655;SDS011;7928;43.614;1.456;2024-02-23T01:09:19;11.17;;;2.23;;
15655;SDS011;7928;43.614;1.456;2024-02-23T01:11:47;10.27;;;2.33;;
15655;SDS011;7928;43.614;1.456;2024-02-23T01:14:14;12.30;;;2.10;;
15655;SDS011;7928;43.614;1.456;2024-02-23T01:16:41;7.83;;;2.23;;
15655;SDS011;7928;43.614;1.456;2024-02-23T01:19:09;13.50;;;2.03;;
15655;SDS011;7928;43.614;1.456;2024-02-23T01:21:36;10.70;;;2.00;;
15655;SDS011;7928;43.614;1.456;2024-02-23T01:24:03;11.10;;;1.93;;
15655;SDS011;7928;43.614;1.456;2024-02-23T01:26:31;9.97;;;2.30;;
15655;SDS011;7928;43.614;1.456;2024-02-23T01:28:58;11.77;;;2.77;;
15655;SDS011;7928;43.614;1.456;2024-02-23T01:31:25;7.63;;;1.77;;
15655;SDS011;7928;43.614;1.456;2024-02-23T01:33:52;11.70;;;2.07;;
15655;SDS011;7928;43.614;1.456;2024-02-23T01:36:20;11.00;;;2.23;;
15655;SDS011;7928;43.614;1.456;2024-02-23T01:38:47;10.67;;;1.70;;
15655;SDS011;7928;43.614;1.456;2024-02-23T01:41:14;14.40;;;2.30;;
15655;SDS011;7928;43.614;1.456;2024-02-23T01:43:41;10.17;;;2.17;;
15655;SDS011;7928;43.614;1.456;2024-02-23T01:46:08;9.93;;;2.03;;
15655;SDS011;7928;43.614;1.456;2024-02-23T01:48:35;10.50;;;2.00;;
15655;SDS011;7928;43.614;1.456;2024-02-23T01:51:03;11.63;;;1.70;;
15655;SDS011;7928;43.614;1.456;2024-02-23T01:53:31;10.07;;;1.90;;
15655;SDS011;7928;43.614;1.456;2024-02-23T01:55:58;9.70;;;1.90;;
15655;SDS011;7928;43.614;1.456;2024-02-23T01:58:27;12.47;;;2.33;;
15655;SDS011;7928;43.614;1.456;2024-02-23T02:00:56;11.63;;;1.77;;
15655;SDS011;7928;43.614;1.456;2024-02-23T02:03:23;7.50;;;1.73;;
15655;SDS011;7928;43.614;1.456;2024-02-23T02:05:50;8.37;;;1.43;;
15655;SDS011;7928;43.614;1.456;2024-02-23T02:08:18;10.33;;;1.80;;
15655;SDS011;7928;43.614;1.456;2024-02-23T02:10:47;13.53;;;2.17;;
15655;SDS011;7928;43.614;1.456;2024-02-23T02:13:14;11.53;;;2.77;;
15655;SDS011;7928;43.614;1.456;2024-02-23T02:15:41;10.97;;;2.00;;
15655;SDS011;7928;43.614;1.456;2024-02-23T02:18:09;9.83;;;2.40;;
15655;SDS011;7928;43.614;1.456;2024-02-23T02:20:36;9.97;;;1.83;;
15655;SDS011;7928;43.614;1.456;2024-02-23T02:23:07;8.03;;;2.27;;
15655;SDS011;7928;43.614;1.456;2024-02-23T02:25:36;16.23;;;2.57;;
15655;SDS011;7928;43.614;1.456;2024-02-23T02:28:06;8.63;;;1.80;;
15655;SDS011;7928;43.614;1.456;2024-02-23T02:30:33;8.93;;;1.97;;
15655;SDS011;7928;43.614;1.456;2024-02-23T02:33:00;11.97;;;2.03;;
15655;SDS011;7928;43.614;1.456;2024-02-23T02:35:27;10.50;;;2.20;;
15655;SDS011;7928;43.614;1.456;2024-02-23T02:37:54;10.10;;;1.90;;
15655;SDS011;7928;43.614;1.456;2024-02-23T02:40:21;10.43;;;1.90;;
15655;SDS011;7928;43.614;1.456;2024-02-23T02:42:48;11.27;;;2.10;;
15655;SDS011;7928;43.614;1.456;2024-02-23T02:45:16;12.40;;;1.97;;
15655;SDS011;7928;43.614;1.456;2024-02-23T02:47:43;8.77;;;1.93;;
15655;SDS011;7928;43.614;1.456;2024-02-23T02:50:10;7.97;;;2.00;;
15655;SDS011;7928;43.614;1.456;2024-02-23T02:52:37;9.90;;;2.00;;
15655;SDS011;7928;43.614;1.456;2024-02-23T02:55:05;11.87;;;1.70;;
15655;SDS011;7928;43.614;1.456;2024-02-23T02:57:32;11.17;;;1.80;;
15655;SDS011;7928;43.614;1.456;2024-02-23T03:00:01;11.73;;;1.80;;
15655;SDS011;7928;43.614;1.456;2024-02-23T03:02:31;13.33;;;2.10;;
15655;SDS011;7928;43.614;1.456;2024-02-23T03:04:58;10.90;;;1.83;;
15655;SDS011;7928;43.614;1.456;2024-02-23T03:07:25;11.53;;;1.70;;
15655;SDS011;7928;43.614;1.456;2024-02-23T03:09:52;6.40;;;1.70;;
15655;SDS011;7928;43.614;1.456;2024-02-23T03:12:19;12.77;;;1.80;;
15655;SDS011;7928;43.614;1.456;2024-02-23T03:14:46;11.20;;;1.90;;
15655;SDS011;7928;43.614;1.456;2024-02-23T03:17:13;9.07;;;1.60;;
15655;SDS011;7928;43.614;1.456;2024-02-23T03:19:42;5.00;;;1.60;;
15655;SDS011;7928;43.614;1.456;2024-02-23T03:22:09;8.77;;;1.70;;
15655;SDS011;7928;43.614;1.456;2024-02-23T03:24:36;7.43;;;1.30;;
15655;SDS011;7928;43.614;1.456;2024-02-23T03:27:03;4.63;;;1.60;;
15655;SDS011;7928;43.614;1.456;2024-02-23T03:29:30;9.90;;;1.70;;
15655;SDS011;7928;43.614;1.456;2024-02-23T03:31:57;9.63;;;1.50;;
15655;SDS011;7928;43.614;1.456;2024-02-23T03:34:24;9.90;;;2.00;;
15655;SDS011;7928;43.614;1.456;2024-02-23T03:36:52;6.53;;;1.13;;
15655;SDS011;7928;43.614;1.456;2024-02-23T03:39:19;8.23;;;1.30;;
15655;SDS011;7928;43.614;1.456;2024-02-23T03:41:46;9.37;;;1.37;;
15655;SDS011;7928;43.614;1.456;2024-02-23T03:44:13;6.07;;;1.47;;
15655;SDS011;7928;43.614;1.456;2024-02-23T03:46:40;6.17;;;1.30;;
15655;SDS011;7928;43.614;1.456;2024-02-23T03:49:07;7.40;;;1.20;;
15655;SDS011;7928;43.614;1.456;2024-02-23T03:51:35;5.60;;;1.00;;
15655;SDS011;7928;43.614;1.456;2024-02-23T03:54:05;6.23;;;1.60;;
15655;SDS011;7928;43.614;1.456;2024-02-23T03:56:37;6.17;;;1.10;;
15655;SDS011;7928;43.614;1.456;2024-02-23T03:59:05;8.77;;;1.10;;
15655;SDS011;7928;43.614;1.456;2024-02-23T04:01:34;5.27;;;1.40;;
15655;SDS011;7928;43.614;1.456;2024-02-23T04:04:02;6.37;;;1.17;;
15655;SDS011;7928;43.614;1.456;2024-02-23T04:06:29;7.53;;;1.37;;
15655;SDS011;7928;43.614;1.456;2024-02-23T04:08:56;5.57;;;1.30;;
15655;SDS011;7928;43.614;1.456;2024-02-23T04:11:24;4.77;;;0.90;;
15655;SDS011;7928;43.614;1.456;2024-02-23T04:13:51;5.93;;;1.30;;
15655;SDS011;7928;43.614;1.456;2024-02-23T04:16:22;5.43;;;1.03;;
15655;SDS011;7928;43.614;1.456;2024-02-23T04:18:49;3.23;;;0.97;;
15655;SDS011;7928;43.614;1.456;2024-02-23T04:21:19;7.40;;;1.23;;
15655;SDS011;7928;43.614;1.456;2024-02-23T04:23:46;5.30;;;1.20;;
15655;SDS011;7928;43.614;1.456;2024-02-23T04:26:13;6.67;;;1.27;;
15655;SDS011;7928;43.614;1.456;2024-02-23T04:28:42;4.53;;;0.97;;
15655;SDS011;7928;43.614;1.456;2024-02-23T04:31:09;3.70;;;0.53;;
15655;SDS011;7928;43.614;1.456;2024-02-23T04:33:36;4.93;;;1.07;;
15655;SDS011;7928;43.614;1.456;2024-02-23T04:36:04;7.37;;;1.87;;
15655;SDS011;7928;43.614;1.456;2024-02-23T04:38:31;5.00;;;0.70;;
15655;SDS011;7928;43.614;1.456;2024-02-23T04:41:02;4.10;;;1.10;;
15655;SDS011;7928;43.614;1.456;2024-02-23T04:43:29;3.77;;;0.70;;
15655;SDS011;7928;43.614;1.456;2024-02-23T04:45:58;4.70;;;0.83;;
15655;SDS011;7928;43.614;1.456;2024-02-23T04:48:25;5.30;;;0.77;;
15655;SDS011;7928;43.614;1.456;2024-02-23T04:50:52;5.67;;;1.67;;
15655;SDS011;7928;43.614;1.456;2024-02-23T04:53:19;5.47;;;0.70;;
15655;SDS011;7928;43.614;1.456;2024-02-23T04:55:46;5.30;;;1.00;;
15655;SDS011;7928;43.614;1.456;2024-02-23T04:58:13;5.03;;;1.10;;
15655;SDS011;7928;43.614;1.456;2024-02-23T05:00:40;4.10;;;0.53;;
15655;SDS011;7928;43.614;1.456;2024-02-23T05:03:09;4.00;;;0.60;;
15655;SDS011;7928;43.614;1.456;2024-02-23T05:05:36;2.70;;;0.60;;
15655;SDS011;7928;43.614;1.456;2024-02-23T05:08:03;5.67;;;1.03;;
15655;SDS011;7928;43.614;1.456;2024-02-23T05:10:30;2.97;;;0.40;;
15655;SDS011;7928;43.614;1.456;2024-02-23T05:12:57;2.47;;;0.67;;
15655;SDS011;7928;43.614;1.456;2024-02-23T05:15:24;4.90;;;1.10;;
15655;SDS011;7928;43.614;1.456;2024-02-23T05:17:51;3.57;;;0.80;;
15655;SDS011;7928;43.614;1.456;2024-02-23T05:20:20;2.47;;;0.30;;
15655;SDS011;7928;43.614;1.456;2024-02-23T05:22:47;4.03;;;0.90;;
15655;SDS011;7928;43.614;1.456;2024-02-23T05:25:14;3.90;;;0.77;;
15655;SDS011;7928;43.614;1.456;2024-02-23T05:27:41;6.50;;;0.50;;
15655;SDS011;7928;43.614;1.456;2024-02-23T05:30:08;4.03;;;0.57;;
15655;SDS011;7928;43.614;1.456;2024-02-23T05:32:36;5.00;;;0.60;;
15655;SDS011;7928;43.614;1.456;2024-02-23T05:35:03;3.37;;;0.47;;
15655;SDS011;7928;43.614;1.456;2024-02-23T05:37:33;2.37;;;0.50;;
15655;SDS011;7928;43.614;1.456;2024-02-23T05:40:00;3.80;;;0.50;;
15655;SDS011;7928;43.614;1.456;2024-02-23T05:42:31;4.83;;;0.80;;
15655;SDS011;7928;43.614;1.456;2024-02-23T05:44:58;3.37;;;0.63;;
15655;SDS011;7928;43.614;1.456;2024-02-23T05:47:25;3.50;;;1.10;;
15655;SDS011;7928;43.614;1.456;2024-02-23T05:49:52;4.13;;;0.40;;
15655;SDS011;7928;43.614;1.456;2024-02-23T05:52:19;1.40;;;0.43;;
15655;SDS011;7928;43.614;1.456;2024-02-23T05:54:48;4.03;;;0.90;;
15655;SDS011;7928;43.614;1.456;2024-02-23T05:57:17;4.67;;;0.70;;
15655;SDS011;7928;43.614;1.456;2024-02-23T05:59:44;5.67;;;0.70;;
15655;SDS011;7928;43.614;1.456;2024-02-23T06:02:11;4.63;;;0.40;;
15655;SDS011;7928;43.614;1.456;2024-02-23T06:04:38;6.43;;;0.70;;
15655;SDS011;7928;43.614;1.456;2024-02-23T06:07:06;2.47;;;0.57;;
15655;SDS011;7928;43.614;1.456;2024-02-23T06:09:33;5.90;;;0.90;;
15655;SDS011;7928;43.614;1.456;2024-02-23T06:12:02;3.77;;;0.77;;
15655;SDS011;7928;43.614;1.456;2024-02-23T06:14:29;4.03;;;0.90;;
15655;SDS011;7928;43.614;1.456;2024-02-23T06:16:56;3.20;;;0.50;;
15655;SDS011;7928;43.614;1.456;2024-02-23T06:19:23;3.03;;;0.40;;
15655;SDS011;7928;43.614;1.456;2024-02-23T06:21:50;3.90;;;0.67;;
15655;SDS011;7928;43.614;1.456;2024-02-23T06:24:17;2.07;;;0.40;;
15655;SDS011;7928;43.614;1.456;2024-02-23T06:26:44;3.70;;;0.80;;
15655;SDS011;7928;43.614;1.456;2024-02-23T06:29:15;4.87;;;0.73;;
15655;SDS011;7928;43.614;1.456;2024-02-23T06:31:42;4.63;;;0.70;;
15655;SDS011;7928;43.614;1.456;2024-02-23T06:34:14;3.73;;;0.70;;
15655;SDS011;7928;43.614;1.456;2024-02-23T06:36:41;5.03;;;0.87;;
15655;SDS011;7928;43.614;1.456;2024-02-23T06:39:08;1.77;;;0.40;;
15655;SDS011;7928;43.614;1.456;2024-02-23T06:41:35;4.73;;;0.60;;
15655;SDS011;7928;43.614;1.456;2024-02-23T06:44:04;4.07;;;1.00;;
15655;SDS011;7928;43.614;1.456;2024-02-23T06:46:32;6.50;;;0.90;;
15655;SDS011;7928;43.614;1.456;2024-02-23T06:48:59;2.37;;;0.60;;
15655;SDS011;7928;43.614;1.456;2024-02-23T06:51:26;2.83;;;0.63;;
15655;SDS011;7928;43.614;1.456;2024-02-23T06:53:53;1.97;;;0.70;;
15655;SDS011;7928;43.614;1.456;2024-02-23T06:56:21;3.77;;;0.77;;
15655;SDS011;7928;43.614;1.456;2024-02-23T06:58:48;5.13;;;0.90;;
15655;SDS011;7928;43.614;1.456;2024-02-23T07:01:15;4.13;;;0.53;;
15655;SDS011;7928;43.614;1.456;2024-02-23T07:03:44;5.13;;;1.43;;
15655;SDS011;7928;43.614;1.456;2024-02-23T07:06:11;5.17;;;0.80;;
15655;SDS011;7928;43.614;1.456;2024-02-23T07:08:38;5.40;;;1.60;;
15655;SDS011;7928;43.614;1.456;2024-02-23T07:11:05;3.40;;;0.80;;
15655;SDS011;7928;43.614;1.456;2024-02-23T07:13:32;2.27;;;0.73;;
15655;SDS011;7928;43.614;1.456;2024-02-23T07:16:00;5.33;;;1.00;;
15655;SDS011;7928;43.614;1.456;2024-02-23T07:18:27;2.17;;;0.60;;
15655;SDS011;7928;43.614;1.456;2024-02-23T07:20:55;3.23;;;1.17;;
15655;SDS011;7928;43.614;1.456;2024-02-23T07:23:23;2.20;;;0.33;;
15655;SDS011;7928;43.614;1.456;2024-02-23T07:25:50;1.70;;;0.30;;
15655;SDS011;7928;43.614;1.456;2024-02-23T07:28:17;3.83;;;0.50;;
15655;SDS011;7928;43.614;1.456;2024-02-23T07:30:44;3.00;;;0.30;;
15655;SDS011;7928;43.614;1.456;2024-02-23T07:33:12;1.60;;;0.30;;
15655;SDS011;7928;43.614;1.456;2024-02-23T07:35:39;3.33;;;0.40;;
15655;SDS011;7928;43.614;1.456;2024-02-23T07:38:07;3.67;;;0.20;;
15655;SDS011;7928;43.614;1.456;2024-02-23T07:40:34;2.80;;;0.43;;
15655;SDS011;7928;43.614;1.456;2024-02-23T07:43:01;1.70;;;0.50;;
15655;SDS011;7928;43.614;1.456;2024-02-23T07:45:28;2.40;;;0.40;;
15655;SDS011;7928;43.614;1.456;2024-02-23T07:47:55;1.30;;;0.37;;
15655;SDS011;7928;43.614;1.456;2024-02-23T07:50:22;1.60;;;0.30;;
15655;SDS011;7928;43.614;1.456;2024-02-23T07:52:49;1.10;;;0.30;;
15655;SDS011;7928;43.614;1.456;2024-02-23T07:55:18;3.43;;;0.47;;
15655;SDS011;7928;43.614;1.456;2024-02-23T07:57:45;4.80;;;0.87;;
15655;SDS011;7928;43.614;1.456;2024-02-23T08:00:12;1.73;;;0.40;;
15655;SDS011;7928;43.614;1.456;2024-02-23T08:02:40;1.50;;;0.40;;
15655;SDS011;7928;43.614;1.456;2024-02-23T08:05:07;1.97;;;0.70;;
15655;SDS011;7928;43.614;1.456;2024-02-23T08:07:35;2.50;;;0.70;;
15655;SDS011;7928;43.614;1.456;2024-02-23T08:10:02;4.50;;;0.50;;
15655;SDS011;7928;43.614;1.456;2024-02-23T08:12:31;2.23;;;0.50;;
15655;SDS011;7928;43.614;1.456;2024-02-23T08:14:58;2.30;;;0.40;;
15655;SDS011;7928;43.614;1.456;2024-02-23T08:17:25;1.20;;;0.40;;
15655;SDS011;7928;43.614;1.456;2024-02-23T08:19:52;4.80;;;0.87;;
15655;SDS011;7928;43.614;1.456;2024-02-23T08:22:19;2.07;;;0.50;;
15655;SDS011;7928;43.614;1.456;2024-02-23T08:24:48;1.57;;;0.30;;
15655;SDS011;7928;43.614;1.456;2024-02-23T08:27:15;4.10;;;0.77;;
15655;SDS011;7928;43.614;1.456;2024-02-23T08:29:43;1.73;;;0.50;;
15655;SDS011;7928;43.614;1.456;2024-02-23T08:32:10;3.23;;;0.63;;
15655;SDS011;7928;43.614;1.456;2024-02-23T08:34:38;3.70;;;0.40;;
15655;SDS011;7928;43.614;1.456;2024-02-23T08:37:06;3.97;;;1.07;;
15655;SDS011;7928;43.614;1.456;2024-02-23T08:39:32;4.20;;;0.70;;
15655;SDS011;7928;43.614;1.456;2024-02-23T08:42:02;4.10;;;0.57;;
15655;SDS011;7928;43.614;1.456;2024-02-23T08:44:29;1.23;;;0.40;;
15655;SDS011;7928;43.614;1.456;2024-02-23T08:46:58;2.50;;;0.70;;
15655;SDS011;7928;43.614;1.456;2024-02-23T08:49:24;2.70;;;0.47;;
15655;SDS011;7928;43.614;1.456;2024-02-23T08:51:53;2.63;;;1.17;;
15655;SDS011;7928;43.614;1.456;2024-02-23T08:54:21;2.93;;;0.67;;
15655;SDS011;7928;43.614;1.456;2024-02-23T08:56:48;3.20;;;0.80;;
15655;SDS011;7928;43.614;1.456;2024-02-23T08:59:15;5.07;;;0.90;;
15655;SDS011;7928;43.614;1.456;2024-02-23T09:01:42;2.93;;;0.67;;
15655;SDS011;7928;43.614;1.456;2024-02-23T09:04:11;6.17;;;0.70;;
15655;SDS011;7928;43.614;1.456;2024-02-23T09:06:38;2.30;;;0.53;;
15655;SDS011;7928;43.614;1.456;2024-02-23T09:09:05;5.30;;;0.60;;
15655;SDS011;7928;43.614;1.456;2024-02-23T09:11:35;4.93;;;0.87;;
15655;SDS011;7928;43.614;1.456;2024-02-23T09:14:02;2.63;;;0.67;;
15655;SDS011;7928;43.614;1.456;2024-02-23T09:16:30;6.13;;;0.50;;
15655;SDS011;7928;43.614;1.456;2024-02-23T09:18:57;5.07;;;0.60;;
15655;SDS011;7928;43.614;1.456;2024-02-23T09:21:25;3.20;;;0.53;;
15655;SDS011;7928;43.614;1.456;2024-02-23T09:23:52;2.00;;;0.50;;
15655;SDS011;7928;43.614;1.456;2024-02-23T09:26:19;4.27;;;0.60;;
15655;SDS011;7928;43.614;1.456;2024-02-23T09:28:46;2.97;;;0.57;;
15655;SDS011;7928;43.614;1.456;2024-02-23T09:31:13;2.47;;;0.63;;
15655;SDS011;7928;43.614;1.456;2024-02-23T09:33:40;4.50;;;0.63;;
15655;SDS011;7928;43.614;1.456;2024-02-23T09:36:09;2.93;;;0.50;;
15655;SDS011;7928;43.614;1.456;2024-02-23T09:38:37;2.43;;;0.53;;
15655;SDS011;7928;43.614;1.456;2024-02-23T09:41:04;4.10;;;0.90;;
15655;SDS011;7928;43.614;1.456;2024-02-23T09:43:38;6.23;;;1.50;;
15655;SDS011;7928;43.614;1.456;2024-02-23T09:46:05;2.77;;;0.60;;
15655;SDS011;7928;43.614;1.456;2024-02-23T09:48:32;4.57;;;0.73;;
15655;SDS011;7928;43.614;1.456;2024-02-23T09:51:00;11.77;;;1.30;;
15655;SDS011;7928;43.614;1.456;2024-02-23T09:53:28;2.43;;;0.43;;
15655;SDS011;7928;43.614;1.456;2024-02-23T09:55:56;2.80;;;0.83;;
15655;SDS011;7928;43.614;1.456;2024-02-23T09:58:25;2.03;;;0.50;;
15655;SDS011;7928;43.614;1.456;2024-02-23T10:00:54;3.10;;;0.60;;
15655;SDS011;7928;43.614;1.456;2024-02-23T10:03:24;1.70;;;0.47;;
15655;SDS011;7928;43.614;1.456;2024-02-23T10:05:53;1.90;;;0.77;;
15655;SDS011;7928;43.614;1.456;2024-02-23T10:08:21;3.23;;;0.50;;
15655;SDS011;7928;43.614;1.456;2024-02-23T10:10:48;2.50;;;0.70;;
15655;SDS011;7928;43.614;1.456;2024-02-23T10:13:19;1.73;;;0.30;;
15655;SDS011;7928;43.614;1.456;2024-02-23T10:15:46;2.53;;;0.43;;
15655;SDS011;7928;43.614;1.456;2024-02-23T10:18:13;2.27;;;0.63;;
15655;SDS011;7928;43.614;1.456;2024-02-23T10:20:41;1.23;;;0.50;;
15655;SDS011;7928;43.614;1.456;2024-02-23T10:23:08;2.27;;;0.50;;
15655;SDS011;7928;43.614;1.456;2024-02-23T10:25:35;2.43;;;0.47;;
15655;SDS011;7928;43.614;1.456;2024-02-23T10:28:03;2.17;;;0.53;;
15655;SDS011;7928;43.614;1.456;2024-02-23T10:30:31;3.37;;;0.50;;
15655;SDS011;7928;43.614;1.456;2024-02-23T10:32:59;2.67;;;0.73;;
15655;SDS011;7928;43.614;1.456;2024-02-23T10:35:26;2.10;;;0.43;;
15655;SDS011;7928;43.614;1.456;2024-02-23T10:37:53;2.47;;;0.40;;
15655;SDS011;7928;43.614;1.456;2024-02-23T10:40:21;3.03;;;0.50;;
15655;SDS011;7928;43.614;1.456;2024-02-23T10:42:49;3.23;;;0.60;;
15655;SDS011;7928;43.614;1.456;2024-02-23T10:45:19;1.83;;;0.33;;
15655;SDS011;7928;43.614;1.456;2024-02-23T10:47:49;2.40;;;0.77;;
15655;SDS011;7928;43.614;1.456;2024-02-23T10:50:17;4.20;;;0.70;;
15655;SDS011;7928;43.614;1.456;2024-02-23T10:52:45;1.20;;;0.50;;
15655;SDS011;7928;43.614;1.456;2024-02-23T10:55:14;2.67;;;0.37;;
15655;SDS011;7928;43.614;1.456;2024-02-23T10:57:41;1.03;;;0.20;;
15655;SDS011;7928;43.614;1.456;2024-02-23T11:00:09;2.10;;;0.57;;
15655;SDS011;7928;43.614;1.456;2024-02-23T11:02:38;2.67;;;0.67;;
15655;SDS011;7928;43.614;1.456;2024-02-23T11:05:11;0.90;;;0.47;;
15655;SDS011;7928;43.614;1.456;2024-02-23T11:07:38;3.07;;;0.70;;
15655;SDS011;7928;43.614;1.456;2024-02-23T11:10:06;1.13;;;0.70;;
15655;SDS011;7928;43.614;1.456;2024-02-23T11:12:34;0.90;;;0.40;;
15655;SDS011;7928;43.614;1.456;2024-02-23T11:15:02;1.80;;;0.47;;
15655;SDS011;7928;43.614;1.456;2024-02-23T11:17:30;1.17;;;0.30;;
15655;SDS011;7928;43.614;1.456;2024-02-23T11:19:58;1.53;;;0.50;;
15655;SDS011;7928;43.614;1.456;2024-02-23T11:22:31;2.63;;;0.50;;
15655;SDS011;7928;43.614;1.456;2024-02-23T11:25:00;2.00;;;0.50;;
15655;SDS011;7928;43.614;1.456;2024-02-23T11:27:30;2.37;;;0.30;;
15655;SDS011;7928;43.614;1.456;2024-02-23T11:29:58;1.57;;;0.40;;
15655;SDS011;7928;43.614;1.456;2024-02-23T11:32:35;2.47;;;0.90;;
15655;SDS011;7928;43.614;1.456;2024-02-23T11:35:05;1.50;;;0.50;;
15655;SDS011;7928;43.614;1.456;2024-02-23T11:37:44;2.70;;;0.57;;
15655;SDS011;7928;43.614;1.456;2024-02-23T11:40:12;2.40;;;0.50;;
15655;SDS011;7928;43.614;1.456;2024-02-23T11:42:38;1.60;;;0.83;;
15655;SDS011;7928;43.614;1.456;2024-02-23T11:45:07;5.80;;;3.00;;
15655;SDS011;7928;43.614;1.456;2024-02-23T11:47:34;1.57;;;0.40;;
15655;SDS011;7928;43.614;1.456;2024-02-23T11:50:02;3.07;;;1.00;;
15655;SDS011;7928;43.614;1.456;2024-02-23T11:52:31;1.67;;;0.47;;
15655;SDS011;7928;43.614;1.456;2024-02-23T11:55:00;1.93;;;0.60;;
15655;SDS011;7928;43.614;1.456;2024-02-23T11:57:27;3.10;;;0.83;;
15655;SDS011;7928;43.614;1.456;2024-02-23T11:59:54;1.50;;;0.53;;
15655;SDS011;7928;43.614;1.456;2024-02-23T12:02:21;1.70;;;0.50;;
15655;SDS011;7928;43.614;1.456;2024-02-23T12:04:50;1.57;;;0.40;;
15655;SDS011;7928;43.614;1.456;2024-02-23T12:07:17;0.83;;;0.40;;
15655;SDS011;7928;43.614;1.456;2024-02-23T12:09:46;2.43;;;0.53;;
15655;SDS011;7928;43.614;1.456;2024-02-23T12:12:14;2.13;;;0.67;;
15655;SDS011;7928;43.614;1.456;2024-02-23T12:14:41;1.47;;;0.57;;
15655;SDS011;7928;43.614;1.456;2024-02-23T12:17:09;1.40;;;0.60;;
15655;SDS011;7928;43.614;1.456;2024-02-23T12:19:37;1.20;;;0.43;;
15655;SDS011;7928;43.614;1.456;2024-02-23T12:22:05;1.83;;;0.30;;
15655;SDS011;7928;43.614;1.456;2024-02-23T12:24:32;2.57;;;0.70;;
15655;SDS011;7928;43.614;1.456;2024-02-23T12:27:00;1.27;;;0.50;;
15655;SDS011;7928;43.614;1.456;2024-02-23T12:29:29;0.47;;;0.20;;
15655;SDS011;7928;43.614;1.456;2024-02-23T12:32:02;1.30;;;0.20;;
15655;SDS011;7928;43.614;1.456;2024-02-23T12:34:29;0.83;;;0.10;;
15655;SDS011;7928;43.614;1.456;2024-02-23T12:36:56;0.77;;;0.20;;
15655;SDS011;7928;43.614;1.456;2024-02-23T12:39:23;1.20;;;0.20;;
15655;SDS011;7928;43.614;1.456;2024-02-23T12:41:51;1.27;;;0.30;;
15655;SDS011;7928;43.614;1.456;2024-02-23T12:44:18;0.87;;;0.20;;
15655;SDS011;7928;43.614;1.456;2024-02-23T12:46:47;1.40;;;0.40;;
15655;SDS011;7928;43.614;1.456;2024-02-23T12:49:14;2.33;;;0.30;;
15655;SDS011;7928;43.614;1.456;2024-02-23T12:51:41;2.40;;;0.50;;
15655;SDS011;7928;43.614;1.456;2024-02-23T12:54:08;0.90;;;0.30;;
15655;SDS011;7928;43.614;1.456;2024-02-23T12:56:35;1.37;;;0.30;;
15655;SDS011;7928;43.614;1.456;2024-02-23T12:59:02;1.43;;;0.73;;
15655;SDS011;7928;43.614;1.456;2024-02-23T13:01:29;0.93;;;0.53;;
15655;SDS011;7928;43.614;1.456;2024-02-23T13:04:03;1.27;;;0.40;;
15655;SDS011;7928;43.614;1.456;2024-02-23T13:06:34;2.40;;;0.53;;
15655;SDS011;7928;43.614;1.456;2024-02-23T13:09:02;2.20;;;0.77;;
15655;SDS011;7928;43.614;1.456;2024-02-23T13:11:29;3.20;;;0.47;;
15655;SDS011;7928;43.614;1.456;2024-02-23T13:13:56;1.97;;;0.60;;
15655;SDS011;7928;43.614;1.456;2024-02-23T13:16:23;1.87;;;0.50;;
15655;SDS011;7928;43.614;1.456;2024-02-23T13:18:50;3.30;;;0.47;;
15655;SDS011;7928;43.614;1.456;2024-02-23T13:21:19;1.37;;;0.37;;
15655;SDS011;7928;43.614;1.456;2024-02-23T13:23:46;3.53;;;0.73;;
15655;SDS011;7928;43.614;1.456;2024-02-23T13:26:13;0.80;;;0.33;;
15655;SDS011;7928;43.614;1.456;2024-02-23T13:28:41;0.80;;;0.40;;
15655;SDS011;7928;43.614;1.456;2024-02-23T13:31:08;1.63;;;0.47;;
15655;SDS011;7928;43.614;1.456;2024-02-23T13:33:35;1.43;;;0.40;;
15655;SDS011;7928;43.614;1.456;2024-02-23T13:36:02;1.87;;;0.30;;
15655;SDS011;7928;43.614;1.456;2024-02-23T13:38:31;1.80;;;0.40;;
15655;SDS011;7928;43.614;1.456;2024-02-23T13:41:03;1.87;;;0.40;;
15655;SDS011;7928;43.614;1.456;2024-02-23T13:43:30;1.73;;;0.57;;
15655;SDS011;7928;43.614;1.456;2024-02-23T13:45:58;2.73;;;0.60;;
15655;SDS011;7928;43.614;1.456;2024-02-23T13:48:25;1.20;;;0.50;;
15655;SDS011;7928;43.614;1.456;2024-02-23T13:50:52;1.47;;;0.30;;
15655;SDS011;7928;43.614;1.456;2024-02-23T13:53:19;1.30;;;0.57;;
15655;SDS011;7928;43.614;1.456;2024-02-23T13:55:48;1.87;;;0.40;;
15655;SDS011;7928;43.614;1.456;2024-02-23T13:58:15;2.57;;;0.40;;
15655;SDS011;7928;43.614;1.456;2024-02-23T14:00:42;1.37;;;0.40;;
15655;SDS011;7928;43.614;1.456;2024-02-23T14:03:10;1.57;;;0.53;;
15655;SDS011;7928;43.614;1.456;2024-02-23T14:05:43;1.27;;;0.33;;
15655;SDS011;7928;43.614;1.456;2024-02-23T14:08:11;0.93;;;0.50;;
15655;SDS011;7928;43.614;1.456;2024-02-23T14:10:38;2.07;;;1.20;;
15655;SDS011;7928;43.614;1.456;2024-02-23T14:13:09;2.63;;;0.47;;
15655;SDS011;7928;43.614;1.456;2024-02-23T14:15:36;2.57;;;0.50;;
15655;SDS011;7928;43.614;1.456;2024-02-23T14:18:03;1.20;;;0.50;;
15655;SDS011;7928;43.614;1.456;2024-02-23T14:20:31;1.07;;;0.33;;
15655;SDS011;7928;43.614;1.456;2024-02-23T14:22:58;1.37;;;0.30;;
15655;SDS011;7928;43.614;1.456;2024-02-23T14:25:25;0.53;;;0.40;;
15655;SDS011;7928;43.614;1.456;2024-02-23T14:27:52;2.40;;;0.20;;
15655;SDS011;7928;43.614;1.456;2024-02-23T14:30:22;1.00;;;0.40;;
15655;SDS011;7928;43.614;1.456;2024-02-23T14:32:49;2.37;;;0.33;;
15655;SDS011;7928;43.614;1.456;2024-02-23T14:35:16;1.97;;;0.90;;
15655;SDS011;7928;43.614;1.456;2024-02-23T14:37:43;1.00;;;0.37;;
15655;SDS011;7928;43.614;1.456;2024-02-23T14:40:10;1.50;;;0.40;;
15655;SDS011;7928;43.614;1.456;2024-02-23T14:42:39;1.37;;;0.30;;
15655;SDS011;7928;43.614;1.456;2024-02-23T14:45:06;1.90;;;0.37;;
15655;SDS011;7928;43.614;1.456;2024-02-23T14:47:35;2.13;;;0.90;;
15655;SDS011;7928;43.614;1.456;2024-02-23T14:50:03;1.70;;;0.43;;
15655;SDS011;7928;43.614;1.456;2024-02-23T14:52:30;1.50;;;0.57;;
15655;SDS011;7928;43.614;1.456;2024-02-23T14:54:57;2.10;;;0.70;;
15655;SDS011;7928;43.614;1.456;2024-02-23T14:57:24;0.70;;;0.30;;
15655;SDS011;7928;43.614;1.456;2024-02-23T14:59:51;2.20;;;0.30;;
15655;SDS011;7928;43.614;1.456;2024-02-23T15:02:18;1.27;;;0.30;;